createdAt,value
2018-07-04T04:19:29.570Z,21.50
2018-07-04T04:22:13.381Z,21.60
2018-07-04T04:24:56.977Z,21.60
2018-07-04T04:27:40.813Z,21.60
2018-07-04T04:30:24.713Z,21.70
2018-07-04T04:33:08.537Z,21.70
2018-07-04T04:35:52.361Z,21.80
2018-07-04T04:38:36.245Z,21.90
2018-07-04T04:41:20.034Z,22.00
2018-07-04T04:44:03.905Z,22.10
2018-07-04T04:46:47.734Z,22.30
2018-07-04T04:49:31.529Z,22.40
2018-07-04T04:52:15.353Z,22.50
2018-07-04T04:54:59.289Z,22.70
2018-07-04T04:57:43.210Z,23.20
2018-07-04T05:00:27.126Z,23.90
2018-07-04T05:03:10.961Z,24.60
2018-07-04T05:05:54.709Z,25.20
2018-07-04T05:08:38.578Z,25.50
2018-07-04T05:11:22.234Z,25.60
2018-07-04T05:14:06.089Z,25.80
2018-07-04T05:16:49.941Z,26.00
2018-07-04T05:19:33.793Z,26.40
2018-07-04T05:22:17.651Z,26.90
2018-07-04T05:25:01.741Z,27.20
2018-07-04T05:27:45.570Z,27.50
2018-07-04T05:30:29.625Z,27.90
2018-07-04T05:33:13.470Z,28.10
2018-07-04T05:35:57.338Z,28.40
2018-07-04T05:38:41.128Z,28.70
2018-07-04T05:41:25.057Z,29.00
2018-07-04T05:44:09.031Z,29.10
2018-07-04T05:46:52.884Z,29.40
2018-07-04T05:49:36.785Z,29.90
2018-07-04T05:52:20.585Z,30.50
2018-07-04T05:55:04.293Z,31.10
2018-07-04T05:57:48.545Z,31.40
2018-07-04T06:00:32.313Z,31.50
2018-07-04T06:03:16.228Z,31.50
2018-07-04T06:05:59.997Z,31.40
2018-07-04T06:08:43.813Z,31.00
2018-07-04T06:11:27.668Z,30.70
2018-07-04T06:14:11.342Z,30.40
2018-07-04T06:16:55.248Z,30.30
2018-07-04T06:19:38.869Z,30.50
2018-07-04T06:22:22.745Z,30.70
2018-07-04T06:25:06.504Z,30.70
2018-07-04T06:27:50.713Z,31.00
2018-07-04T06:30:34.462Z,31.70
2018-07-04T06:33:18.469Z,32.60
2018-07-04T06:36:02.371Z,33.30
2018-07-04T06:38:33.758Z,33.80
2018-07-04T06:41:05.413Z,34.00
2018-07-04T06:43:36.864Z,33.60
2018-07-04T06:46:08.234Z,33.10
2018-07-04T06:48:39.642Z,32.80
2018-07-04T06:51:11.023Z,33.30
2018-07-04T06:53:42.405Z,33.00
2018-07-04T06:56:13.791Z,32.30
2018-07-04T06:58:45.462Z,31.40
2018-07-04T07:01:16.849Z,30.70
2018-07-04T07:04:00.693Z,30.10
2018-07-04T07:06:44.418Z,29.70
2018-07-04T07:09:28.538Z,29.20
2018-07-04T07:12:12.446Z,28.90
2018-07-04T07:14:56.377Z,28.70
2018-07-04T07:17:39.998Z,28.70
2018-07-04T07:20:23.889Z,29.10
2018-07-04T07:23:08.150Z,29.40
2018-07-04T07:25:51.819Z,30.00
2018-07-04T07:28:35.625Z,30.60
2018-07-04T07:31:19.382Z,31.30
2018-07-04T07:34:03.835Z,31.50
2018-07-04T07:36:47.864Z,31.70
2018-07-04T07:39:31.653Z,32.20
2018-07-04T07:42:15.577Z,32.90
2018-07-04T07:44:59.414Z,33.30
2018-07-04T07:47:43.158Z,33.60
2018-07-04T07:50:27.038Z,34.00
2018-07-04T07:53:11.010Z,34.30
2018-07-04T07:55:54.797Z,34.50
2018-07-04T07:58:38.997Z,34.50
2018-07-04T08:01:22.933Z,34.60
2018-07-04T08:04:06.789Z,34.40
2018-07-04T08:06:50.573Z,34.10
2018-07-04T08:09:34.429Z,33.90
2018-07-04T08:12:18.205Z,33.40
2018-07-04T08:15:01.893Z,32.80
2018-07-04T08:17:45.729Z,32.20
2018-07-04T08:20:29.654Z,31.70
2018-07-04T08:23:13.767Z,31.20
2018-07-04T08:25:57.613Z,30.90
2018-07-04T08:28:41.461Z,30.60
2018-07-04T08:31:25.357Z,30.60
2018-07-04T08:34:09.301Z,31.00
2018-07-04T08:36:53.176Z,31.90
2018-07-04T08:39:36.989Z,32.60
2018-07-04T08:42:20.715Z,33.10
2018-07-04T08:45:04.569Z,33.50
2018-07-04T08:47:48.640Z,33.70
2018-07-04T08:50:32.231Z,33.60
2018-07-04T08:53:16.100Z,33.20
2018-07-04T08:55:59.963Z,32.70
2018-07-04T08:58:44.006Z,32.20
2018-07-04T09:01:27.753Z,31.60
2018-07-04T09:04:11.542Z,31.10
2018-07-04T09:06:55.334Z,30.60
2018-07-04T09:09:39.197Z,30.40
2018-07-04T09:12:23.068Z,30.20
2018-07-04T09:15:06.909Z,30.10
2018-07-04T09:17:50.733Z,29.90
2018-07-04T09:20:34.926Z,29.80
2018-07-04T09:23:18.812Z,29.50
2018-07-04T09:26:02.673Z,29.30
2018-07-04T09:28:46.372Z,29.00
2018-07-04T09:31:30.597Z,28.90
2018-07-04T09:34:14.570Z,28.70
2018-07-04T09:36:58.482Z,28.40
2018-07-04T09:39:42.256Z,28.30
2018-07-04T09:42:26.121Z,28.10
2018-07-04T09:45:09.925Z,27.90
2018-07-04T09:47:53.738Z,27.70
2018-07-04T09:53:15.526Z,27.30
2018-07-04T09:55:59.506Z,27.20
2018-07-04T09:58:43.409Z,27.10
2018-07-04T10:01:27.290Z,27.00
2018-07-04T10:04:11.060Z,27.10
2018-07-04T10:06:55.038Z,27.10
2018-07-04T10:09:38.743Z,27.00
2018-07-04T10:12:22.598Z,27.00
2018-07-04T10:15:06.470Z,26.80
2018-07-04T10:17:50.345Z,26.60
2018-07-04T10:20:34.195Z,26.60
2018-07-04T10:23:18.142Z,26.50
2018-07-04T10:26:01.849Z,26.30
2018-07-04T10:28:45.554Z,26.30
2018-07-04T10:31:29.497Z,26.30
2018-07-04T10:34:13.401Z,26.00
2018-07-04T10:36:57.201Z,25.90
2018-07-04T10:39:41.026Z,25.80
2018-07-04T10:42:24.857Z,25.40
2018-07-04T10:45:08.489Z,25.30
2018-07-04T10:47:52.262Z,25.30
2018-07-04T10:50:36.035Z,25.50
2018-07-04T10:53:19.974Z,25.80
2018-07-04T10:56:03.781Z,26.30
2018-07-04T10:58:47.477Z,27.40
2018-07-04T11:01:31.702Z,28.60
2018-07-04T11:04:15.336Z,29.60
2018-07-04T11:09:37.445Z,31.10
2018-07-04T11:12:21.534Z,31.50
2018-07-04T11:15:05.281Z,31.80
2018-07-04T11:17:49.160Z,31.60
2018-07-04T11:20:32.985Z,32.20
2018-07-04T11:23:16.601Z,32.80
2018-07-04T11:26:00.463Z,32.70
2018-07-04T11:28:44.340Z,31.70
2018-07-04T11:31:28.171Z,30.70
2018-07-04T11:34:11.929Z,29.90
2018-07-04T11:36:56.006Z,29.60
2018-07-04T11:39:40.042Z,29.50
2018-07-04T11:42:23.962Z,29.50
2018-07-04T11:45:07.565Z,29.50
2018-07-04T11:47:38.956Z,29.60
2018-07-04T11:50:10.623Z,29.60
2018-07-04T11:52:42.026Z,29.60
2018-07-04T11:55:13.636Z,29.70
2018-07-04T11:57:45.026Z,29.60
2018-07-04T12:00:16.406Z,29.50
2018-07-04T12:02:47.797Z,29.40
2018-07-04T12:05:31.470Z,29.50
2018-07-04T12:08:03.165Z,29.50
2018-07-04T12:10:34.537Z,29.50
2018-07-04T12:13:06.161Z,29.60
2018-07-04T12:15:37.539Z,29.70
2018-07-04T12:18:08.925Z,29.70
2018-07-04T12:20:40.297Z,29.70
2018-07-04T12:23:11.686Z,29.60
2018-07-04T12:25:43.066Z,29.60
2018-07-04T12:28:14.463Z,29.60
2018-07-04T12:30:45.833Z,29.50
2018-07-04T12:33:17.456Z,29.40
2018-07-04T12:35:48.829Z,29.30
2018-07-04T12:38:20.224Z,29.20
2018-07-04T12:40:51.593Z,29.10
2018-07-04T12:43:23.037Z,28.90
2018-07-04T12:45:54.366Z,28.90
2018-07-04T12:48:25.768Z,28.80
2018-07-04T12:50:57.160Z,28.80
2018-07-04T12:53:28.547Z,28.70
2018-07-04T12:56:12.433Z,28.60
2018-07-04T12:58:56.249Z,28.60
2018-07-04T13:01:40.477Z,28.60
2018-07-04T13:04:24.173Z,28.50
2018-07-04T13:07:07.889Z,28.40
2018-07-04T13:09:51.753Z,28.40
2018-07-04T13:12:35.601Z,28.30
2018-07-04T13:15:19.425Z,28.20
2018-07-04T13:18:03.276Z,28.20
2018-07-04T13:20:47.003Z,28.10
2018-07-04T13:23:30.833Z,28.00
2018-07-04T13:26:14.697Z,27.90
2018-07-04T13:28:58.556Z,27.80
2018-07-04T13:31:42.516Z,27.50
2018-07-04T13:34:26.296Z,27.40
2018-07-04T13:37:10.301Z,27.10
2018-07-04T13:39:54.126Z,26.90
2018-07-04T13:42:37.980Z,26.80
2018-07-04T13:45:21.861Z,26.80
2018-07-04T13:48:05.693Z,26.70
2018-07-04T13:50:49.918Z,26.70
2018-07-04T13:53:33.753Z,26.70
2018-07-04T13:56:17.480Z,26.60
2018-07-04T13:59:01.329Z,26.60
2018-07-04T14:01:45.109Z,26.60
2018-07-04T14:04:29.005Z,26.70
2018-07-04T14:07:12.718Z,26.80
2018-07-04T14:09:56.509Z,26.90
2018-07-04T14:12:40.634Z,27.00
2018-07-04T14:15:24.389Z,27.00
2018-07-04T14:18:08.134Z,27.10
2018-07-04T14:20:51.959Z,27.10
2018-07-04T14:23:35.846Z,27.30
2018-07-04T14:26:19.482Z,27.50
2018-07-04T14:29:03.781Z,27.60
2018-07-04T14:31:47.473Z,27.70
2018-07-04T14:34:31.243Z,27.80
2018-07-04T14:37:15.042Z,27.90
2018-07-04T14:39:58.751Z,28.00
2018-07-04T14:42:42.986Z,28.10
2018-07-04T14:45:26.897Z,28.20
2018-07-04T14:48:10.745Z,28.20
2018-07-04T14:50:54.710Z,28.40
2018-07-04T14:53:38.553Z,28.40
2018-07-04T14:56:22.422Z,28.40
2018-07-04T14:59:06.298Z,28.50
2018-07-04T15:01:50.263Z,28.50
2018-07-04T15:04:34.131Z,28.60
2018-07-04T15:07:17.872Z,28.70
2018-07-04T15:10:01.844Z,28.70
2018-07-04T15:12:45.537Z,28.80
2018-07-04T15:15:29.341Z,28.80
2018-07-04T15:18:13.155Z,28.80
2018-07-04T15:20:57.030Z,28.80
2018-07-04T15:23:41.000Z,28.70
2018-07-04T15:26:24.777Z,28.60
2018-07-04T15:29:08.545Z,28.50
2018-07-04T15:31:52.372Z,28.50
2018-07-04T15:34:36.130Z,28.50
2018-07-04T15:37:19.878Z,28.40
2018-07-04T15:40:03.805Z,28.50
2018-07-04T15:42:47.643Z,28.40
2018-07-04T15:45:31.491Z,28.40
2018-07-04T15:48:15.563Z,28.40
2018-07-04T15:50:59.346Z,28.40
2018-07-04T15:53:43.213Z,28.40
2018-07-04T15:56:27.095Z,28.50
2018-07-04T15:59:11.005Z,28.40
2018-07-04T16:01:55.176Z,28.30
2018-07-04T16:04:39.084Z,28.20
2018-07-04T16:07:23.018Z,28.20
2018-07-04T16:10:06.841Z,28.20
2018-07-04T16:12:50.598Z,28.20
2018-07-04T16:15:34.445Z,28.20
2018-07-04T16:18:18.226Z,28.10
2018-07-04T16:21:02.122Z,28.10
2018-07-04T16:23:45.693Z,28.10
2018-07-04T16:26:29.712Z,28.10
2018-07-04T16:29:13.645Z,28.10
2018-07-04T16:31:57.373Z,28.10
2018-07-04T16:34:41.264Z,28.10
2018-07-04T16:37:25.309Z,28.10
2018-07-04T16:40:09.105Z,28.20
2018-07-04T16:42:53.194Z,28.20
2018-07-04T16:45:37.174Z,28.20
2018-07-04T16:48:20.913Z,28.10
2018-07-04T16:51:04.790Z,28.20
2018-07-04T16:53:48.745Z,28.20
2018-07-04T16:56:32.570Z,28.20
2018-07-04T16:59:16.363Z,28.20
2018-07-04T17:02:00.301Z,28.20
2018-07-04T17:04:44.281Z,28.10
2018-07-04T17:07:27.845Z,28.10
2018-07-04T17:10:11.773Z,28.10
2018-07-04T17:12:55.673Z,28.00
2018-07-04T17:15:39.541Z,28.00
2018-07-04T17:18:23.229Z,27.90
2018-07-04T17:21:07.078Z,27.90
2018-07-04T17:23:50.914Z,27.80
2018-07-04T17:26:34.811Z,27.70
2018-07-04T17:29:18.619Z,27.60
2018-07-04T17:32:02.625Z,27.60
2018-07-04T17:34:46.373Z,27.50
2018-07-04T17:37:30.160Z,27.50
2018-07-04T17:40:14.256Z,27.50
2018-07-04T17:42:58.093Z,27.50
2018-07-04T17:45:42.013Z,27.60
2018-07-04T17:48:25.819Z,27.60
2018-07-04T17:51:09.653Z,27.60
2018-07-04T17:53:53.537Z,27.60
2018-07-04T17:56:37.373Z,27.60
2018-07-04T17:59:21.297Z,27.60
2018-07-04T18:02:05.496Z,27.60
2018-07-04T18:04:49.314Z,27.60
2018-07-04T18:07:33.422Z,27.50
2018-07-04T18:10:17.321Z,27.40
2018-07-04T18:13:01.025Z,27.30
2018-07-04T18:15:44.821Z,27.20
2018-07-04T18:18:28.728Z,27.20
2018-07-04T18:21:12.926Z,27.10
2018-07-04T18:23:56.694Z,27.10
2018-07-04T18:26:40.541Z,27.00
2018-07-04T18:29:24.482Z,26.90
2018-07-04T18:32:08.345Z,26.80
2018-07-04T18:34:52.189Z,26.60
2018-07-04T18:37:35.948Z,26.50
2018-07-04T18:40:19.745Z,26.30
2018-07-04T18:43:03.621Z,26.30
2018-07-04T18:45:47.410Z,26.20
2018-07-04T18:48:31.555Z,26.10
2018-07-04T18:51:15.274Z,26.10
2018-07-04T18:53:59.121Z,26.00
2018-07-04T18:56:42.889Z,26.00
2018-07-04T18:59:26.953Z,25.90
2018-07-04T19:02:10.637Z,25.80
2018-07-04T19:04:56.425Z,25.70
2018-07-04T19:07:40.224Z,25.70
2018-07-04T19:10:24.102Z,25.60
2018-07-04T19:13:07.746Z,25.60
2018-07-04T19:15:51.461Z,25.50
2018-07-04T19:18:35.154Z,25.40
2018-07-04T19:21:18.805Z,25.40
2018-07-04T19:24:02.481Z,25.30
2018-07-04T19:26:46.689Z,25.30
2018-07-04T19:29:30.712Z,25.20
2018-07-04T19:32:15.481Z,25.20
2018-07-04T19:34:59.170Z,25.10
2018-07-04T19:37:42.921Z,25.00
2018-07-04T19:40:26.777Z,25.00
2018-07-04T19:43:10.758Z,24.90
2018-07-04T19:45:54.485Z,24.80
2018-07-04T19:48:38.334Z,24.80
2018-07-04T19:51:22.197Z,24.70
2018-07-04T19:54:06.021Z,24.70
2018-07-04T19:56:49.917Z,24.60
2018-07-04T19:59:33.726Z,24.50
2018-07-04T20:02:17.600Z,24.50
2018-07-04T20:05:01.454Z,24.50
2018-07-04T20:07:45.421Z,24.40
2018-07-04T20:10:29.125Z,24.30
2018-07-04T20:13:12.965Z,24.30
2018-07-04T20:15:56.745Z,24.10
2018-07-04T20:18:40.441Z,24.10
2018-07-04T20:21:24.061Z,24.00
2018-07-04T20:24:07.825Z,24.00
2018-07-04T20:26:51.657Z,23.90
2018-07-04T20:29:35.413Z,23.90
2018-07-04T20:32:19.266Z,23.80
2018-07-04T20:35:03.174Z,23.80
